Time;durP1;ratioP1;P1;durP2;ratioP2;P2;SDS_P1;SDS_P2;PMS_P1;PMS_P2;Temp;Humidity;BMP_temperature;BMP_pressure;BME280_temperature;BME280_humidity;BME280_pressure;Samples;Min_cycle;Max_cycle;Signal;HPM_P1;HPM_P2
2022/05/03 00:22:24;;;;;;;5.30;4.78;;;;;;;11.32;66.89;96492.88;4953202;28;20309;-78
2022/05/03 00:24:54;;;;;;;5.43;4.93;;;;;;;11.24;66.68;96495.59;4954289;29;20047;-78
2022/05/03 00:27:25;;;;;;;4.53;4.13;;;;;;;11.17;66.87;96499.97;4953666;29;20051;-79
2022/05/03 00:29:54;;;;;;;4.20;3.80;;;;;;;11.17;67.88;96492.94;4962430;28;20058;-78
2022/05/03 00:32:22;;;;;;;4.90;4.50;;;;;;;11.18;67.92;96497.19;4973597;28;20059;-78
2022/05/03 00:34:50;;;;;;;6.22;4.82;;;;;;;11.16;67.01;96498.38;4973658;28;20054;-76
2022/05/03 00:37:18;;;;;;;5.25;4.75;;;;;;;11.07;67.09;96490.66;4972749;28;20057;-76
2022/05/03 00:39:47;;;;;;;6.43;4.85;;;;;;;11.03;67.17;96489.41;4974075;28;20059;-76
2022/05/03 00:42:20;;;;;;;6.43;4.80;;;;;;;10.98;67.05;96491.78;4973542;28;20519;-76
2022/05/03 00:45:05;;;;;;;5.38;4.82;;;;;;;10.95;67.76;96484.31;4973661;28;20054;-76
2022/05/03 00:47:50;;;;;;;5.60;5.10;;;;;;;11.04;71.28;96483.22;4972311;28;20524;-76
2022/05/03 00:50:30;;;;;;;6.95;4.70;;;;;;;11.04;68.18;96485.81;4973168;28;20435;-76
2022/05/03 00:53:02;;;;;;;6.78;5.50;;;;;;;10.95;67.15;96480.91;4973212;28;20051;-76
2022/05/03 00:55:55;;;;;;;5.95;5.28;;;;;;;10.85;67.80;96476.81;4973583;28;20057;-76
2022/05/03 00:58:42;;;;;;;5.38;4.90;;;;;;;10.78;67.84;96469.91;4973337;28;20051;-76
2022/05/03 01:01:22;;;;;;;5.07;4.57;;;;;;;10.74;68.20;96472.09;4967090;28;20046;-76
2022/05/03 01:03:59;;;;;;;4.97;4.35;;;;;;;10.79;70.13;96477.53;4973532;28;20055;-76
2022/05/03 01:06:36;;;;;;;5.75;5.25;;;;;;;10.82;68.39;96476.34;4972713;28;20070;-76
2022/05/03 01:09:06;;;;;;;5.82;5.22;;;;;;;10.87;72.16;96481.84;4973042;28;20055;-75
2022/05/03 01:11:47;;;;;;;9.13;5.03;;;;;;;10.95;71.02;96479.09;4973783;28;20057;-76
2022/05/03 01:14:33;;;;;;;5.68;5.18;;;;;;;10.97;69.34;96482.31;4967204;28;20051;-76
2022/05/03 01:17:05;;;;;;;6.47;4.90;;;;;;;11.01;71.56;96480.97;4972407;28;20057;-76
2022/05/03 01:19:52;;;;;;;5.32;4.88;;;;;;;11.00;69.07;96479.34;4973229;28;20055;-76
2022/05/03 01:23:09;;;;;;;5.82;5.32;;;;;;;11.02;72.01;96481.75;4973078;28;20055;-76
2022/05/03 01:25:53;;;;;;;7.47;5.25;;;;;;;10.93;68.58;96478.47;4958388;28;20046;-76
2022/05/03 01:28:30;;;;;;;7.68;5.97;;;;;;;10.87;68.33;96484.47;4973825;28;20055;-80
2022/05/03 01:31:04;;;;;;;6.22;5.07;;;;;;;10.79;67.13;96479.34;4973431;28;20059;-79
2022/05/03 01:33:34;;;;;;;4.82;4.43;;;;;;;10.74;67.84;96473.91;4973605;28;20055;-79
2022/05/03 01:36:03;;;;;;;5.47;4.97;;;;;;;10.77;69.84;96469.09;4964097;28;20046;-79
2022/05/03 01:38:43;;;;;;;4.93;4.53;;;;;;;10.78;68.90;96465.50;4972883;28;20067;-80
2022/05/03 01:41:24;;;;;;;5.53;5.00;;;;;;;10.83;73.67;96475.38;4966815;28;20051;-80
2022/05/03 01:44:09;;;;;;;5.80;5.20;;;;;;;10.89;74.59;96477.25;4973302;28;20062;-77
2022/05/03 01:46:39;;;;;;;5.25;4.75;;;;;;;10.79;68.46;96472.31;4972008;28;20494;-76
2022/05/03 01:52:22;;;;;;;3.90;3.60;;;;;;;10.54;70.28;96474.50;4972816;28;20506;-76
2022/05/03 01:55:08;;;;;;;5.90;5.22;;;;;;;10.65;74.14;96476.63;4972780;28;20047;-76
2022/05/03 01:57:45;;;;;;;5.38;4.88;;;;;;;10.69;70.15;96472.66;4972026;28;20058;-76
2022/05/03 02:00:13;;;;;;;5.78;5.13;;;;;;;10.74;73.02;96473.91;4975942;28;20505;-76
2022/05/03 02:02:57;;;;;;;7.57;5.30;;;;;;;10.77;72.66;96471.69;4976533;28;20129;-77
2022/05/03 02:05:40;;;;;;;6.18;5.55;;;;;;;10.79;75.09;96466.31;4975987;28;20054;-76
2022/05/03 02:08:12;;;;;;;5.88;4.85;;;;;;;10.70;69.33;96466.41;4981371;28;20046;-76
2022/05/03 02:10:50;;;;;;;4.72;4.28;;;;;;;10.60;68.69;96462.50;4995318;28;20110;-76
2022/05/03 02:14:43;;;;;;;4.60;4.20;;;;;;;10.47;68.24;96468.38;4990561;28;20058;-79
2022/05/03 02:16:29;;;;;;;5.90;4.55;;;;;;;10.42;70.79;96461.09;4975321;28;20501;-79
2022/05/03 02:19:09;;;;;;;5.30;4.80;;;;;;;10.46;71.78;96472.00;4976196;28;20515;-79
2022/05/03 02:21:49;;;;;;;5.70;5.13;;;;;;;10.50;70.67;96468.81;4976162;28;20508;-79
2022/05/03 02:24:27;;;;;;;6.00;4.47;;;;;;;10.49;69.80;96466.41;4977197;28;20046;-79
2022/05/03 02:27:05;;;;;;;5.40;4.90;;;;;;;10.52;74.82;96472.06;4976427;28;20059;-79
2022/05/03 02:29:41;;;;;;;5.75;5.25;;;;;;;10.60;73.46;96468.50;4976313;28;20051;-79
2022/05/03 02:32:11;;;;;;;6.82;5.13;;;;;;;10.64;71.94;96480.19;4975735;28;20051;-78
2022/05/03 02:34:48;;;;;;;5.30;4.80;;;;;;;10.57;69.36;96475.91;4976066;28;20059;-79
2022/05/03 02:37:17;;;;;;;5.40;4.80;;;;;;;10.46;68.14;96466.78;4974936;28;20054;-78
2022/05/03 02:39:52;;;;;;;6.70;4.90;;;;;;;10.31;67.91;96469.41;4975756;28;20043;-79
2022/05/03 02:42:21;;;;;;;4.63;4.20;;;;;;;10.23;68.23;96478.13;4975620;28;20058;-79
2022/05/03 02:44:52;;;;;;;6.93;5.32;;;;;;;10.25;71.93;96475.31;4975840;28;20424;-77
2022/05/03 02:47:30;;;;;;;7.95;7.15;;;;;;;10.34;71.18;96470.84;4974757;28;20047;-75
2022/05/03 02:50:09;;;;;;;9.25;7.65;;;;;;;10.29;68.34;96466.97;4975655;28;20050;-76
2022/05/03 02:52:42;;;;;;;8.10;7.10;;;;;;;10.20;68.55;96468.03;4975306;28;20058;-76
2022/05/03 02:55:20;;;;;;;6.60;5.95;;;;;;;10.17;68.54;96467.63;4975236;28;20057;-77
2022/05/03 02:57:54;;;;;;;7.45;6.55;;;;;;;10.11;68.38;96474.34;4974775;28;20069;-76
2022/05/03 03:03:43;;;;;;;5.88;5.22;;;;;;;10.02;70.13;96472.84;4975064;28;20050;-76
2022/05/03 03:06:21;;;;;;;5.32;4.82;;;;;;;9.96;68.69;96476.16;4960726;28;20051;-76
2022/05/03 03:08:52;;;;;;;5.18;4.68;;;;;;;9.89;69.07;96471.69;4974945;28;20054;-76
2022/05/03 03:11:30;;;;;;;5.85;4.82;;;;;;;9.85;69.37;96480.03;4975369;28;20077;-76
2022/05/03 03:14:07;;;;;;;5.32;4.82;;;;;;;9.84;69.89;96484.44;4975042;28;20073;-76
2022/05/03 03:16:37;;;;;;;6.20;5.60;;;;;;;9.93;72.83;96477.34;4974529;28;20070;-76
2022/05/03 03:19:14;;;;;;;7.68;6.88;;;;;;;10.02;71.33;96475.44;4975192;28;20086;-76
2022/05/03 03:21:48;;;;;;;6.53;5.82;;;;;;;10.10;74.22;96477.94;4974740;28;20058;-76
2022/05/03 03:24:17;;;;;;;6.97;5.43;;;;;;;10.08;69.97;96479.94;4974647;28;20509;-76
2022/05/03 03:26:47;;;;;;;6.07;5.47;;;;;;;9.95;68.91;96475.38;4973776;28;20057;-77
2022/05/03 03:29:15;;;;;;;6.32;4.82;;;;;;;9.81;68.90;96474.38;4974624;28;20062;-76
2022/05/03 03:31:43;;;;;;;7.60;4.60;;;;;;;9.78;69.16;96479.16;4974719;28;20057;-76
2022/05/03 03:34:12;;;;;;;5.55;5.05;;;;;;;9.73;68.64;96478.84;4974543;28;20128;-77
2022/05/03 03:36:42;;;;;;;6.38;5.18;;;;;;;9.64;69.14;96476.34;4974066;28;20061;-79
2022/05/03 03:39:10;;;;;;;5.30;4.80;;;;;;;9.59;69.41;96470.06;4974089;28;20062;-79
2022/05/03 03:41:37;;;;;;;6.30;5.35;;;;;;;9.52;69.42;96469.16;4974426;28;20424;-79
2022/05/03 03:44:05;;;;;;;8.77;5.55;;;;;;;9.46;69.63;96475.88;4974424;28;20062;-79
2022/05/03 03:46:34;;;;;;;5.93;5.18;;;;;;;9.42;69.91;96472.84;4973286;28;20489;-78
2022/05/03 03:49:01;;;;;;;6.22;5.03;;;;;;;9.48;71.45;96468.69;4974217;28;20051;-79
2022/05/03 03:51:29;;;;;;;5.45;4.95;;;;;;;9.55;71.24;96487.00;4973867;28;20440;-79
2022/05/03 03:53:59;;;;;;;7.25;6.15;;;;;;;9.57;70.64;96474.63;4974258;28;20050;-78
2022/05/03 03:56:26;;;;;;;6.93;5.93;;;;;;;9.53;69.83;96471.56;4973437;28;20054;-79
2022/05/03 03:58:54;;;;;;;6.97;5.15;;;;;;;9.55;70.16;96477.41;4973944;28;20047;-78
2022/05/03 04:01:22;;;;;;;7.47;6.00;;;;;;;9.58;69.97;96482.28;4974272;28;20077;-79
2022/05/03 04:03:51;;;;;;;6.32;5.40;;;;;;;9.58;69.97;96484.06;4973948;28;20105;-79
2022/05/03 04:06:18;;;;;;;6.15;5.55;;;;;;;9.52;69.37;96475.16;4973251;28;20051;-78
2022/05/03 04:08:46;;;;;;;6.28;5.68;;;;;;;9.51;69.13;96477.94;4973972;28;20051;-79
2022/05/03 04:11:15;;;;;;;6.43;5.82;;;;;;;9.45;68.81;96480.28;4973908;28;20401;-78
2022/05/03 04:13:43;;;;;;;6.63;6.03;;;;;;;9.37;68.86;96472.53;4973645;28;20551;-79
2022/05/03 04:16:12;;;;;;;7.05;6.35;;;;;;;9.31;69.22;96470.63;4973044;28;20050;-78
2022/05/03 04:18:47;;;;;;;6.60;5.97;;;;;;;9.26;69.48;96470.38;4979637;28;20043;-77
2022/05/03 04:21:16;;;;;;;7.57;6.28;;;;;;;9.20;69.76;96471.06;4995981;28;20077;-77
2022/05/03 04:23:43;;;;;;;6.65;6.00;;;;;;;9.19;69.90;96472.88;4996148;28;20099;-78
2022/05/03 04:26:11;;;;;;;8.48;6.10;;;;;;;9.20;70.09;96471.88;4979404;28;20046;-80
2022/05/03 04:28:40;;;;;;;7.88;5.65;;;;;;;9.22;70.18;96476.91;4980992;28;20038;-81
2022/05/03 04:31:08;;;;;;;8.00;6.57;;;;;;;9.23;69.87;96473.31;4992960;28;20047;-80
2022/05/03 04:33:36;;;;;;;8.43;6.38;;;;;;;9.24;69.90;96477.53;4992697;28;20507;-79
2022/05/03 04:36:04;;;;;;;8.25;5.38;;;;;;;9.33;72.45;96476.47;4977228;28;20046;-78
2022/05/03 04:38:32;;;;;;;8.85;5.88;;;;;;;9.44;71.69;96481.25;4973203;28;20046;-78
2022/05/03 04:41:00;;;;;;;8.32;5.85;;;;;;;9.52;72.27;96484.78;4972627;28;20077;-78
2022/05/03 04:43:28;;;;;;;9.75;7.38;;;;;;;9.63;74.52;96487.75;4973238;28;20138;-79
2022/05/03 04:46:00;;;;;;;8.10;7.30;;;;;;;9.73;74.29;96492.72;4971912;28;20050;-80
2022/05/03 04:48:27;;;;;;;8.00;7.10;;;;;;;9.80;74.58;96488.38;4973394;28;20049;-80
2022/05/03 04:50:55;;;;;;;10.93;8.98;;;;;;;9.84;72.71;96488.84;4967353;28;20059;-79
2022/05/03 04:53:22;;;;;;;17.08;9.40;;;;;;;9.78;71.04;96492.97;4962264;28;20069;-78
2022/05/03 04:55:50;;;;;;;24.08;15.18;;;;;;;9.74;71.59;96496.13;4971955;28;20066;-78
2022/05/03 04:58:17;;;;;;;10.43;8.18;;;;;;;9.69;70.45;96492.25;4973024;28;20058;-80
2022/05/03 05:00:45;;;;;;;8.52;6.97;;;;;;;9.69;70.56;96496.66;4971709;28;20042;-80
2022/05/03 05:03:14;;;;;;;9.73;8.07;;;;;;;9.66;69.79;96500.44;4954351;28;20085;-80
2022/05/03 05:05:41;;;;;;;9.68;6.80;;;;;;;9.61;70.20;96497.53;4958693;28;20413;-82
2022/05/03 05:08:09;;;;;;;10.07;6.90;;;;;;;9.57;70.60;96498.06;4974593;28;20051;-80
2022/05/03 05:10:37;;;;;;;10.73;7.35;;;;;;;9.61;70.96;96509.75;4968196;28;20051;-80
2022/05/03 05:13:04;;;;;;;9.20;7.30;;;;;;;9.70;72.96;96504.28;4972808;28;20061;-80
2022/05/03 05:15:36;;;;;;;14.43;9.57;;;;;;;9.84;74.84;96512.31;4966054;28;20051;-82
2022/05/03 05:18:04;;;;;;;11.27;9.50;;;;;;;9.94;74.80;96510.22;4973440;28;20051;-81
2022/05/03 05:20:34;;;;;;;13.20;9.23;;;;;;;10.02;75.36;96509.34;4972881;28;20051;-79
2022/05/03 05:23:01;;;;;;;15.73;10.00;;;;;;;10.08;75.17;96506.00;4971353;28;20051;-79
2022/05/03 05:25:50;;;;;;;12.70;9.48;;;;;;;10.13;75.14;96508.88;4972346;28;20054;-79
2022/05/03 05:28:19;;;;;;;12.95;9.48;;;;;;;10.18;74.81;96511.72;4972036;28;20055;-79
2022/05/03 05:30:46;;;;;;;11.93;9.82;;;;;;;10.23;75.56;96509.41;4972018;28;20043;-79
2022/05/03 05:33:14;;;;;;;14.75;9.73;;;;;;;10.26;75.46;96506.44;4975218;28;20073;-80
2022/05/03 05:35:43;;;;;;;10.93;9.75;;;;;;;10.30;75.44;96515.53;4976830;28;20524;-80
2022/05/03 05:38:13;;;;;;;13.75;9.40;;;;;;;10.34;75.26;96518.56;4977566;28;20042;-78
2022/05/03 05:40:41;;;;;;;17.80;9.15;;;;;;;10.39;75.26;96518.84;4977045;28;20096;-79
2022/05/03 05:43:08;;;;;;;25.48;9.63;;;;;;;10.41;73.97;96511.66;4976683;28;20058;-79
2022/05/03 05:45:37;;;;;;;19.25;9.60;;;;;;;10.46;74.94;96505.91;4976716;28;20047;-80
2022/05/03 05:48:05;;;;;;;25.13;9.35;;;;;;;10.47;74.18;96504.88;4975616;28;20047;-79
2022/05/03 05:50:33;;;;;;;18.88;9.18;;;;;;;10.46;73.21;96513.72;4976561;28;20060;-79
2022/05/03 05:55:47;;;;;;;11.70;8.63;;;;;;;10.59;74.72;96507.84;4975843;28;20054;-79
2022/05/03 05:58:15;;;;;;;11.80;9.18;;;;;;;10.67;75.13;96507.72;4976352;28;20051;-79
2022/05/03 06:00:42;;;;;;;12.10;9.45;;;;;;;10.75;75.69;96512.03;4976254;28;20047;-79
2022/05/03 06:03:10;;;;;;;12.88;9.40;;;;;;;10.82;75.80;96512.88;4976472;28;20066;-79
2022/05/03 06:05:38;;;;;;;12.18;9.30;;;;;;;10.91;76.02;96511.78;4976248;28;20073;-79
2022/05/03 06:08:08;;;;;;;16.40;10.30;;;;;;;10.98;75.91;96506.66;4975399;28;20047;-79
2022/05/03 06:10:35;;;;;;;13.93;9.93;;;;;;;11.04;75.37;96521.53;4976306;28;20053;-79
2022/05/03 06:13:03;;;;;;;15.82;10.27;;;;;;;11.09;75.67;96503.53;4976005;28;20421;-79
2022/05/03 06:15:30;;;;;;;13.57;10.30;;;;;;;11.17;75.95;96510.41;4976223;28;20410;-79
2022/05/03 06:17:58;;;;;;;19.95;11.63;;;;;;;11.25;76.15;96513.69;4975439;28;20051;-79
2022/05/03 06:20:26;;;;;;;21.92;10.48;;;;;;;11.32;74.69;96514.56;5022390;23;20041;-80
2022/05/03 06:22:55;;;;;;;20.40;10.80;;;;;;;11.38;73.63;96513.00;5002021;28;20098;-80
2022/05/03 06:25:24;;;;;;;14.48;10.45;;;;;;;11.41;71.33;96512.63;5001389;28;20062;-80
2022/05/03 06:27:52;;;;;;;19.75;9.95;;;;;;;11.45;71.14;96511.25;5001088;28;20062;-80
2022/05/03 06:30:20;;;;;;;13.43;9.27;;;;;;;11.53;72.55;96513.72;5001105;28;20031;-80
2022/05/03 06:32:48;;;;;;;13.77;9.80;;;;;;;11.66;73.48;96514.84;5001137;28;20033;-79
2022/05/03 06:35:16;;;;;;;14.13;9.18;;;;;;;11.79;73.35;96514.91;5001219;28;20050;-80
2022/05/03 06:37:45;;;;;;;13.00;10.80;;;;;;;11.91;73.62;96518.63;5001190;28;20031;-80
2022/05/03 06:40:13;;;;;;;15.52;10.10;;;;;;;12.00;71.89;96521.91;5001037;28;20034;-80
2022/05/03 06:42:42;;;;;;;15.75;9.80;;;;;;;12.05;70.33;96523.97;5001194;28;20062;-80
2022/05/03 06:45:11;;;;;;;10.88;8.93;;;;;;;12.11;70.08;96528.41;5000559;28;20034;-79
2022/05/03 06:47:44;;;;;;;12.82;9.15;;;;;;;12.23;71.34;96521.63;5000871;28;20039;-81
2022/05/03 06:50:15;;;;;;;13.63;9.13;;;;;;;12.36;71.40;96526.94;4999965;28;20039;-81
2022/05/03 06:52:43;;;;;;;14.10;9.70;;;;;;;12.49;71.01;96526.19;5000960;28;20034;-80
2022/05/03 06:55:12;;;;;;;10.52;8.77;;;;;;;12.62;71.44;96530.66;5000818;28;20066;-80
2022/05/03 06:57:40;;;;;;;9.43;8.05;;;;;;;12.75;71.49;96535.94;5000547;28;20042;-80
2022/05/03 07:00:10;;;;;;;10.32;8.80;;;;;;;12.86;69.95;96528.53;5000684;28;20078;-80
2022/05/03 07:02:38;;;;;;;12.23;8.50;;;;;;;13.00;70.12;96527.53;5000705;28;20035;-79
2022/05/03 07:05:07;;;;;;;12.90;9.30;;;;;;;13.14;69.03;96534.41;5000684;28;20110;-80
2022/05/03 07:07:36;;;;;;;9.32;8.40;;;;;;;13.28;67.52;96529.19;5000309;28;20355;-80
2022/05/03 07:10:04;;;;;;;9.57;8.40;;;;;;;13.39;68.85;96532.03;5000341;28;20062;-79
2022/05/03 07:12:35;;;;;;;13.10;9.48;;;;;;;13.52;66.68;96535.69;5000416;28;20062;-80
2022/05/03 07:15:05;;;;;;;9.25;8.32;;;;;;;13.66;65.71;96539.09;5000513;28;20034;-80
2022/05/03 07:23:11;;;;;;;7.97;7.18;;;;;;;14.10;63.46;96540.25;5000364;28;20046;-80
2022/05/03 07:25:40;;;;;;;7.75;6.95;;;;;;;14.24;63.16;96539.22;5000460;28;20031;-82
2022/05/03 07:28:09;;;;;;;7.50;6.80;;;;;;;14.38;63.01;96551.28;5000551;28;20035;-82
2022/05/03 07:30:38;;;;;;;8.73;6.57;;;;;;;14.54;62.83;96536.06;5000363;28;20027;-81
2022/05/03 07:33:08;;;;;;;7.72;6.30;;;;;;;14.69;64.60;96536.63;5000301;28;20107;-81
2022/05/03 07:35:37;;;;;;;8.35;7.03;;;;;;;14.83;63.97;96543.47;5000191;28;20069;-80
2022/05/03 07:38:05;;;;;;;7.47;6.38;;;;;;;14.95;62.60;96540.97;4999949;28;20042;-81
2022/05/03 07:40:34;;;;;;;8.43;7.15;;;;;;;15.08;61.91;96534.81;5000044;28;20031;-81
2022/05/03 07:43:05;;;;;;;7.85;7.05;;;;;;;15.22;61.57;96538.19;4999993;28;20083;-80
2022/05/03 07:45:33;;;;;;;7.68;6.90;;;;;;;15.35;62.22;96535.47;5000332;28;20075;-80
2022/05/03 07:48:04;;;;;;;7.03;6.32;;;;;;;15.48;60.98;96534.56;5000184;28;20027;-82
2022/05/03 07:50:39;;;;;;;9.30;7.35;;;;;;;15.62;59.64;96541.31;5000353;28;20070;-83
2022/05/03 07:53:11;;;;;;;7.50;6.68;;;;;;;15.74;59.71;96532.75;4999784;28;20034;-82
2022/05/03 07:55:42;;;;;;;9.57;6.40;;;;;;;15.88;58.96;96536.88;4999387;28;20039;-83
2022/05/03 07:58:10;;;;;;;7.85;6.25;;;;;;;16.00;58.15;96536.97;5000183;28;20031;-83
2022/05/03 08:00:42;;;;;;;6.10;5.55;;;;;;;16.11;60.69;96544.13;5000066;28;20054;-83
2022/05/03 08:03:13;;;;;;;13.98;7.18;;;;;;;16.24;59.94;96540.56;5000126;28;20031;-86
2022/05/03 08:05:46;;;;;;;6.80;6.13;;;;;;;16.36;57.32;96543.28;4999714;28;20058;-84
2022/05/03 08:08:15;;;;;;;6.23;5.63;;;;;;;16.46;57.46;96547.03;5000080;28;20107;-81
2022/05/03 08:10:45;;;;;;;8.98;5.72;;;;;;;16.60;56.95;96541.59;4999730;28;20118;-83
2022/05/03 08:13:14;;;;;;;7.45;5.38;;;;;;;16.74;58.19;96543.03;4999666;28;20054;-83
2022/05/03 08:15:46;;;;;;;7.18;5.80;;;;;;;16.85;57.11;96544.94;4999785;28;20038;-81
2022/05/03 08:18:14;;;;;;;10.77;6.03;;;;;;;16.97;56.36;96546.84;4999806;28;20038;-82
2022/05/03 08:20:44;;;;;;;6.40;5.80;;;;;;;17.10;56.63;96544.03;4999754;28;20038;-82
2022/05/03 08:23:12;;;;;;;7.82;5.97;;;;;;;17.22;55.93;96542.22;4999784;28;20058;-82
2022/05/03 08:25:41;;;;;;;8.55;5.60;;;;;;;17.34;54.76;96541.44;4999616;28;20035;-81
2022/05/03 08:28:12;;;;;;;6.70;5.82;;;;;;;17.45;55.37;96545.94;4999850;28;20042;-82
2022/05/03 08:30:41;;;;;;;7.78;5.43;;;;;;;17.59;55.04;96549.16;4999454;28;20047;-82
2022/05/03 08:33:09;;;;;;;6.10;5.55;;;;;;;17.71;54.16;96550.78;4999825;28;20039;-82
2022/05/03 08:35:38;;;;;;;6.72;5.72;;;;;;;17.82;56.38;96551.88;4999551;28;20069;-83
2022/05/03 08:43:43;;;;;;;6.93;6.28;;;;;;;18.22;54.90;96553.81;4999372;28;20039;-82
2022/05/03 08:46:12;;;;;;;6.38;5.38;;;;;;;18.32;54.00;96558.50;4999346;28;20090;-82
2022/05/03 08:48:44;;;;;;;9.02;5.75;;;;;;;18.41;53.76;96554.47;4983059;28;20035;-81
2022/05/03 08:51:21;;;;;;;7.13;5.82;;;;;;;18.52;53.17;96558.94;4999304;28;20078;-82
2022/05/03 08:53:51;;;;;;;8.07;5.75;;;;;;;18.65;53.35;96563.16;4999266;28;20062;-82
2022/05/03 08:56:22;;;;;;;6.40;5.75;;;;;;;18.76;53.11;96569.44;4999139;28;20035;-82
2022/05/03 08:58:51;;;;;;;8.40;5.88;;;;;;;18.82;52.92;96557.94;4999182;28;20023;-82
2022/05/03 09:01:20;;;;;;;7.80;5.65;;;;;;;18.84;55.00;96558.53;4999336;28;20035;-82
2022/05/03 09:03:48;;;;;;;8.73;5.90;;;;;;;18.94;53.81;96555.28;4999108;28;20042;-82
2022/05/03 09:06:18;;;;;;;11.75;6.38;;;;;;;19.08;52.62;96561.06;4999101;28;20042;-83
2022/05/03 09:08:51;;;;;;;5.63;4.95;;;;;;;19.15;51.68;96561.72;5002828;28;20062;-84
2022/05/03 09:11:20;;;;;;;6.97;5.65;;;;;;;19.18;51.92;96557.84;5003014;28;20054;-82
2022/05/03 09:13:48;;;;;;;6.75;6.05;;;;;;;19.20;51.34;96564.47;5003218;28;20066;-82
2022/05/03 09:16:18;;;;;;;6.50;5.50;;;;;;;19.22;51.48;96562.41;5002948;28;20039;-82
2022/05/03 09:18:48;;;;;;;6.43;5.80;;;;;;;19.23;51.61;96566.63;5003030;28;20057;-82
2022/05/03 09:24:14;;;;;;;8.10;6.35;;;;;;;19.17;51.40;96570.22;5003165;28;20035;-82
2022/05/03 09:26:43;;;;;;;8.07;5.95;;;;;;;19.20;52.12;96561.84;5002653;28;20059;-82
2022/05/03 09:29:14;;;;;;;8.25;5.57;;;;;;;19.33;51.68;96563.38;5002789;28;20061;-83
2022/05/03 09:31:46;;;;;;;6.72;6.03;;;;;;;19.46;50.75;96557.78;5002836;28;20094;-82
2022/05/03 09:34:19;;;;;;;7.28;5.68;;;;;;;19.63;51.11;96551.69;5002843;28;20038;-83
2022/05/03 09:36:49;;;;;;;6.07;5.53;;;;;;;19.78;51.06;96544.03;5002666;28;20069;-81
2022/05/03 09:39:41;;;;;;;5.28;4.78;;;;;;;19.88;50.81;96541.53;5002477;28;20070;-82
2022/05/03 09:42:13;;;;;;;5.85;5.18;;;;;;;19.96;50.31;96541.13;5002713;28;20030;-82
2022/05/03 09:44:53;;;;;;;6.00;5.10;;;;;;;19.94;48.07;96545.88;5002662;28;20059;-81
2022/05/03 09:47:23;;;;;;;4.68;4.28;;;;;;;19.88;47.61;96543.38;5002584;28;20039;-82
2022/05/03 09:49:51;;;;;;;4.45;4.05;;;;;;;19.80;48.30;96541.94;5002455;28;20043;-82
2022/05/03 09:52:29;;;;;;;4.63;4.22;;;;;;;19.75;47.51;96550.59;5002289;28;20054;-82
2022/05/03 09:55:07;;;;;;;5.82;4.00;;;;;;;19.70;46.79;96541.78;5002605;28;20031;-83
2022/05/03 09:57:40;;;;;;;5.57;3.97;;;;;;;19.64;47.00;96543.53;5002260;28;20062;-83
2022/05/03 10:00:13;;;;;;;4.28;3.97;;;;;;;19.60;46.61;96537.09;5002121;28;20495;-84
2022/05/03 10:02:47;;;;;;;5.78;3.42;;;;;;;19.56;46.91;96533.34;5002162;28;20057;-83
2022/05/03 10:05:20;;;;;;;4.20;3.50;;;;;;;19.52;46.81;96533.00;5002194;28;20034;-82
2022/05/03 10:07:50;;;;;;;4.38;2.80;;;;;;;19.52;49.90;96529.56;5002012;28;20054;-83
2022/05/03 10:10:22;;;;;;;4.70;3.60;;;;;;;19.46;47.09;96528.69;5002260;28;20065;-82
2022/05/03 10:12:53;;;;;;;3.35;3.00;;;;;;;19.42;46.41;96516.97;5002094;28;20059;-83
2022/05/03 10:21:16;;;;;;;7.40;2.90;;;;;;;19.28;44.80;96520.97;5001584;28;20039;-83
2022/05/03 10:24:01;;;;;;;;;;;;;;;19.27;45.24;96528.09;5002643;28;20035;-82
2022/05/03 10:27:05;;;;;;;5.78;2.67;;;;;;;19.20;44.00;96524.81;5001609;28;19913;-82
2022/05/03 10:29:36;;;;;;;4.78;2.55;;;;;;;19.18;44.37;96526.09;5001749;28;20094;-83
2022/05/03 10:32:16;;;;;;;4.07;2.15;;;;;;;19.17;44.29;96522.63;5001313;28;20059;-83
2022/05/03 10:34:56;;;;;;;2.65;2.10;;;;;;;19.19;43.41;96515.25;5001805;28;20063;-82
2022/05/03 10:38:00;;;;;;;2.35;2.10;;;;;;;19.20;43.02;96508.13;5001781;28;20038;-84
2022/05/03 10:40:39;;;;;;;2.58;2.38;;;;;;;19.21;42.55;96507.91;4996882;28;20082;-83
2022/05/03 10:43:24;;;;;;;3.20;2.58;;;;;;;19.19;42.50;96504.69;5001482;28;20044;-81
2022/05/03 10:45:58;;;;;;;2.75;2.55;;;;;;;19.17;42.47;96501.47;5001141;28;20050;-81
2022/05/03 10:48:34;;;;;;;1.70;1.60;;;;;;;19.19;44.23;96502.03;5001355;28;20035;-82
2022/05/03 10:51:05;;;;;;;2.80;2.33;;;;;;;19.23;42.95;96497.88;5000841;28;20066;-84
2022/05/03 10:53:36;;;;;;;2.20;2.00;;;;;;;19.30;44.01;96501.16;5001328;28;20046;-81
2022/05/03 10:56:20;;;;;;;5.55;2.10;;;;;;;19.40;43.01;96495.25;5001133;28;20034;-79
2022/05/03 10:59:10;;;;;;;4.82;2.53;;;;;;;19.54;42.25;96493.88;5000285;28;20098;-79
2022/05/03 11:02:07;;;;;;;1.75;1.65;;;;;;;19.66;42.16;96493.81;5000897;28;20240;-79
2022/05/03 11:04:56;;;;;;;2.67;1.83;;;;;;;19.75;41.80;96486.28;4995772;28;20058;-81
2022/05/03 11:07:25;;;;;;;3.58;2.20;;;;;;;19.86;40.23;96487.25;5000589;28;20035;-80
2022/05/03 11:09:53;;;;;;;3.85;1.80;;;;;;;19.91;39.74;96479.34;5000796;28;20058;-80
2022/05/03 11:12:49;;;;;;;2.70;2.20;;;;;;;19.94;39.16;96487.63;5000750;28;20037;-79
2022/05/03 11:15:20;;;;;;;4.40;2.28;;;;;;;19.95;38.96;96485.78;5000647;28;20042;-80
2022/05/03 11:17:52;;;;;;;3.83;1.77;;;;;;;19.98;37.67;96479.97;5000595;28;20050;-80
2022/05/03 11:20:22;;;;;;;;;;;;;;;20.08;38.89;96487.28;5000687;28;20118;-81
2022/05/03 11:22:51;;;;;;;3.95;2.20;;;;;;;20.11;38.33;96481.47;5000665;28;19926;-79
2022/05/03 11:25:19;;;;;;;2.58;1.88;;;;;;;20.12;37.61;96480.44;5000479;28;20055;-81
2022/05/03 11:27:52;;;;;;;1.67;1.58;;;;;;;20.11;36.69;96478.81;5000345;28;20061;-80
2022/05/03 11:30:26;;;;;;;1.75;1.65;;;;;;;20.11;36.11;96474.31;5000304;28;20061;-81
2022/05/03 11:33:07;;;;;;;3.38;2.30;;;;;;;20.13;35.61;96471.44;5000586;28;20034;-85
2022/05/03 11:35:47;;;;;;;2.65;1.83;;;;;;;20.14;35.94;96468.56;4984187;28;20107;-83
2022/05/03 11:38:30;;;;;;;1.95;1.75;;;;;;;20.19;35.85;96470.47;5000688;28;20050;-82
2022/05/03 11:44:26;;;;;;;2.03;1.55;;;;;;;20.28;35.85;96468.19;4998750;28;20041;-80
2022/05/03 11:47:25;;;;;;;2.53;1.75;;;;;;;20.36;36.62;96465.91;4984513;28;20035;-82
2022/05/03 12:07:46;;;;;;;9.98;2.58;;;;;;;20.80;36.17;96461.63;4978342;28;20082;-80
2022/05/03 12:22:23;;;;;;;2.77;2.03;;;;;;;21.13;39.30;96450.00;6233790;22;1426545;-79
2022/05/03 12:24:51;;;;;;;3.55;2.00;;;;;;;21.22;40.40;96451.13;6227171;23;20020;-79
2022/05/03 12:27:19;;;;;;;1.88;1.70;;;;;;;21.29;40.74;96443.75;6243516;23;20024;-79
2022/05/03 12:29:48;;;;;;;7.57;2.65;;;;;;;21.31;40.72;96454.91;6241792;23;20024;-80
2022/05/03 12:32:19;;;;;;;3.28;1.92;;;;;;;21.30;41.42;96452.53;6245698;23;20051;-79
2022/05/03 12:34:58;;;;;;;2.58;1.92;;;;;;;21.30;41.19;96450.69;6245178;23;20027;-79
2022/05/03 12:37:28;;;;;;;1.77;1.67;;;;;;;21.34;40.46;96449.13;6230786;23;20095;-79
2022/05/03 12:40:04;;;;;;;2.22;2.03;;;;;;;21.40;40.95;96447.28;6225681;23;20047;-79
2022/05/03 12:42:46;;;;;;;2.70;1.67;;;;;;;21.47;41.28;96452.41;6223472;23;20078;-79
2022/05/03 12:45:24;;;;;;;2.53;2.30;;;;;;;21.53;40.10;96448.75;6224296;23;20016;-80
2022/05/03 12:50:54;;;;;;;2.60;2.10;;;;;;;21.59;38.15;96439.75;6224027;23;20096;-79
2022/05/03 12:53:58;;;;;;;2.83;2.00;;;;;;;21.62;37.98;96441.09;6222234;23;20020;-79
2022/05/03 12:59:18;;;;;;;4.72;2.10;;;;;;;21.77;38.88;96438.53;6224216;23;20060;-79
2022/05/03 13:08:21;;;;;;;2.10;1.90;;;;;;;21.95;39.12;96431.97;6224814;23;20367;-79
2022/05/03 13:11:05;;;;;;;3.42;2.17;;;;;;;21.96;38.04;96429.09;6223799;23;20013;-80
2022/05/03 13:16:59;;;;;;;2.05;1.90;;;;;;;21.95;37.27;96440.78;6219422;22;20031;-80
2022/05/03 13:22:47;;;;;;;5.72;3.17;;;;;;;21.85;39.77;96437.25;6218196;23;20021;-79
2022/05/03 13:25:25;;;;;;;14.52;4.00;;;;;;;21.72;40.48;96434.00;6216342;23;20070;-80
2022/05/03 13:28:01;;;;;;;6.38;4.10;;;;;;;21.58;41.38;96438.97;6216179;23;20025;-80
2022/05/03 13:31:17;;;;;;;3.70;3.40;;;;;;;21.44;42.42;96437.00;6217401;22;20396;-80
2022/05/03 13:33:53;;;;;;;4.20;3.53;;;;;;;21.23;43.80;96436.00;6217833;23;20021;-80
2022/05/03 13:42:12;;;;;;;5.47;3.92;;;;;;;20.85;47.22;96438.63;6218045;23;20020;-79
2022/05/03 13:44:45;;;;;;;4.50;4.03;;;;;;;20.74;47.65;96450.19;6216982;23;20017;-78
2022/05/03 13:53:32;;;;;;;3.90;3.60;;;;;;;20.44;50.48;96451.41;6219162;23;20020;-79
2022/05/03 13:56:01;;;;;;;6.45;4.45;;;;;;;20.33;50.92;96455.00;6249106;23;20051;-79